createdAt,value
2019-02-16T00:01:19.231Z,6.65
2019-02-16T00:03:51.026Z,6.53
2019-02-16T00:06:23.604Z,6.35
2019-02-16T00:08:55.763Z,7.15
2019-02-16T00:11:27.369Z,6.78
2019-02-16T00:13:59.336Z,5.35
2019-02-16T00:16:31.271Z,5.90
2019-02-16T00:19:03.333Z,6.15
2019-02-16T00:21:35.431Z,6.80
2019-02-16T00:24:06.929Z,6.30
2019-02-16T00:26:38.691Z,6.78
2019-02-16T00:29:10.681Z,6.10
2019-02-16T00:31:42.185Z,6.47
2019-02-16T00:34:14.056Z,5.53
2019-02-16T00:36:47.012Z,6.58
2019-02-16T00:39:18.385Z,5.55
2019-02-16T00:41:51.515Z,5.50
2019-02-16T00:44:23.766Z,5.20
2019-02-16T00:46:55.066Z,5.55
2019-02-16T00:49:27.436Z,5.78
2019-02-16T00:51:59.161Z,4.45
2019-02-16T00:54:30.468Z,6.85
2019-02-16T00:57:03.278Z,3.60
2019-02-16T00:59:35.480Z,4.12
2019-02-16T01:02:07.170Z,3.55
2019-02-16T01:04:39.205Z,3.85
2019-02-16T01:07:10.531Z,3.62
2019-02-16T01:09:41.939Z,4.70
2019-02-16T01:12:15.120Z,2.27
2019-02-16T01:14:47.142Z,1.80
2019-02-16T01:17:19.371Z,2.35
2019-02-16T01:19:51.972Z,2.83
2019-02-16T01:22:23.794Z,2.92
2019-02-16T01:24:55.018Z,3.72
2019-02-16T01:27:27.126Z,4.47
2019-02-16T01:29:58.806Z,3.45
2019-02-16T01:32:30.421Z,2.95
2019-02-16T01:35:01.618Z,2.72
2019-02-16T01:37:33.898Z,4.62
2019-02-16T01:40:06.624Z,2.50
2019-02-16T01:42:38.305Z,3.35
2019-02-16T01:45:11.311Z,3.58
2019-02-16T01:47:42.556Z,2.95
2019-02-16T01:50:14.186Z,3.35
2019-02-16T01:52:45.549Z,2.17
2019-02-16T01:55:18.920Z,3.90
2019-02-16T01:57:50.298Z,2.33
2019-02-16T02:00:21.968Z,2.30
2019-02-16T02:02:54.490Z,4.60
2019-02-16T02:05:26.204Z,4.67
2019-02-16T02:07:58.054Z,3.37
2019-02-16T02:10:29.800Z,5.10
2019-02-16T02:13:01.549Z,4.20
2019-02-16T02:15:32.892Z,4.78
2019-02-16T02:18:04.702Z,4.17
2019-02-16T02:20:37.009Z,3.50
2019-02-16T02:23:08.841Z,4.55
2019-02-16T02:25:40.565Z,4.30
2019-02-16T02:28:12.165Z,2.58
2019-02-16T02:30:44.112Z,3.75
2019-02-16T02:33:17.234Z,2.22
2019-02-16T02:35:48.536Z,4.75
2019-02-16T02:38:19.751Z,3.42
2019-02-16T02:40:51.439Z,2.58
2019-02-16T02:43:23.429Z,2.92
2019-02-16T02:45:55.560Z,4.65
2019-02-16T02:48:27.698Z,3.25
2019-02-16T02:50:58.957Z,2.98
2019-02-16T02:53:31.699Z,4.45
2019-02-16T02:56:04.439Z,3.98
2019-02-16T02:58:35.725Z,2.80
2019-02-16T03:01:07.866Z,3.62
2019-02-16T03:03:42.482Z,4.85
2019-02-16T03:06:14.696Z,3.50
2019-02-16T03:08:45.949Z,3.75
2019-02-16T03:11:17.702Z,2.27
2019-02-16T03:13:50.169Z,2.40
2019-02-16T03:16:21.411Z,1.95
2019-02-16T03:18:53.482Z,1.15
2019-02-16T03:21:25.616Z,3.67
2019-02-16T03:23:57.345Z,3.90
2019-02-16T03:26:47.481Z,2.47
2019-02-16T03:29:34.038Z,3.05
2019-02-16T03:32:47.495Z,3.35
2019-02-16T03:35:51.223Z,2.52
2019-02-16T03:39:09.190Z,2.55
2019-02-16T03:41:41.224Z,1.92
2019-02-16T03:44:12.506Z,2.15
2019-02-16T03:46:44.807Z,3.85
2019-02-16T03:49:16.576Z,3.25
2019-02-16T03:51:47.811Z,2.33
2019-02-16T03:57:10.433Z,2.72
2019-02-16T03:59:42.268Z,2.30
2019-02-16T04:02:15.268Z,3.95
2019-02-16T04:04:47.301Z,1.65
2019-02-16T04:07:19.437Z,4.00
2019-02-16T04:09:51.394Z,3.12
2019-02-16T04:12:23.275Z,4.42
2019-02-16T04:14:55.168Z,3.42
2019-02-16T04:17:26.872Z,3.22
2019-02-16T04:19:58.575Z,3.12
2019-02-16T04:22:30.628Z,2.83
2019-02-16T04:25:02.519Z,2.85
2019-02-16T04:30:23.981Z,4.75
2019-02-16T04:32:55.196Z,2.55
2019-02-16T04:35:27.690Z,2.65
2019-02-16T04:37:59.759Z,4.65
2019-02-16T04:40:31.583Z,5.00
2019-02-16T04:43:02.928Z,3.52
2019-02-16T04:45:34.622Z,2.95
2019-02-16T04:48:05.941Z,3.03
2019-02-16T04:50:37.543Z,1.72
2019-02-16T04:53:09.366Z,2.60
2019-02-16T04:55:41.167Z,4.20
2019-02-16T04:58:12.751Z,2.17
2019-02-16T05:00:44.805Z,3.27
2019-02-16T05:03:16.540Z,3.17
2019-02-16T05:05:47.736Z,2.60
2019-02-16T05:08:20.326Z,3.65
2019-02-16T05:10:52.481Z,3.35
2019-02-16T05:13:24.250Z,3.77
2019-02-16T05:15:55.582Z,4.97
2019-02-16T05:18:27.478Z,5.33
2019-02-16T05:20:59.212Z,2.77
2019-02-16T05:23:31.864Z,4.00
2019-02-16T05:26:27.157Z,4.17
2019-02-16T05:29:03.659Z,4.35
2019-02-16T05:31:35.817Z,4.22
2019-02-16T05:34:07.414Z,3.42
2019-02-16T05:36:40.977Z,4.90
2019-02-16T05:39:12.540Z,2.53
2019-02-16T05:41:44.076Z,3.10
2019-02-16T05:44:16.061Z,5.03
2019-02-16T05:46:47.420Z,3.25
2019-02-16T05:49:19.183Z,3.67
2019-02-16T05:51:50.911Z,3.12
2019-02-16T05:54:22.761Z,3.58
2019-02-16T05:56:54.104Z,2.73
2019-02-16T05:59:26.071Z,2.83
2019-02-16T06:01:58.042Z,4.40
2019-02-16T06:04:29.932Z,4.03
2019-02-16T06:07:01.353Z,3.47
2019-02-16T06:09:33.647Z,2.77
2019-02-16T06:12:05.482Z,3.17
2019-02-16T06:14:37.332Z,2.58
2019-02-16T06:17:09.255Z,4.53
2019-02-16T06:19:41.386Z,1.83
2019-02-16T06:22:13.089Z,3.30
2019-02-16T06:24:45.208Z,4.40
2019-02-16T06:27:16.853Z,3.08
2019-02-16T06:29:48.571Z,4.17
2019-02-16T06:32:20.626Z,4.00
2019-02-16T06:34:57.076Z,3.33
2019-02-16T06:37:29.052Z,2.87
2019-02-16T06:40:01.662Z,5.08
2019-02-16T06:42:33.309Z,5.53
2019-02-16T06:45:05.167Z,4.20
2019-02-16T06:47:36.444Z,4.53
2019-02-16T06:50:08.931Z,3.67
2019-02-16T06:52:40.473Z,3.67
2019-02-16T06:55:12.643Z,3.50
2019-02-16T06:57:48.373Z,2.55
2019-02-16T07:00:22.246Z,4.47
2019-02-16T07:02:54.030Z,3.20
2019-02-16T07:05:26.090Z,3.77
2019-02-16T07:07:58.493Z,2.58
2019-02-16T07:10:30.252Z,3.67
2019-02-16T07:13:01.937Z,3.40
2019-02-16T07:15:33.212Z,4.17
2019-02-16T07:18:14.417Z,4.20
2019-02-16T07:20:45.785Z,4.17
2019-02-16T07:23:27.019Z,2.90
2019-02-16T07:26:17.833Z,5.03
2019-02-16T07:28:50.266Z,5.92
2019-02-16T07:31:23.513Z,3.00
2019-02-16T07:33:54.858Z,4.70
2019-02-16T07:36:26.191Z,4.47
2019-02-16T07:38:58.914Z,4.62
2019-02-16T07:41:31.684Z,4.90
2019-02-16T07:44:15.204Z,4.72
2019-02-16T07:46:54.365Z,4.83
2019-02-16T07:49:40.034Z,6.00
2019-02-16T07:52:39.164Z,4.78
2019-02-16T07:55:20.755Z,3.92
2019-02-16T07:58:01.280Z,4.10
2019-02-16T08:00:49.935Z,3.92
2019-02-16T08:03:30.181Z,6.05
2019-02-16T08:06:23.847Z,4.92
2019-02-16T08:09:14.424Z,3.87
2019-02-16T08:11:55.923Z,5.28
2019-02-16T08:14:44.766Z,5.60
2019-02-16T08:17:19.607Z,5.45
2019-02-16T08:20:16.029Z,3.77
2019-02-16T08:23:05.931Z,6.12
2019-02-16T08:26:04.306Z,5.03
2019-02-16T08:29:02.254Z,3.72
2019-02-16T08:31:50.958Z,3.02
2019-02-16T08:34:37.957Z,5.45
2019-02-16T08:37:24.261Z,7.55
2019-02-16T08:40:22.643Z,6.95
2019-02-16T08:43:16.204Z,5.62
2019-02-16T08:46:07.643Z,7.17
2019-02-16T08:48:54.033Z,4.40
2019-02-16T08:51:37.288Z,6.22
2019-02-16T08:54:27.872Z,4.97
2019-02-16T08:57:34.404Z,5.95
2019-02-16T09:00:27.764Z,6.25
2019-02-16T09:03:16.996Z,6.67
2019-02-16T09:06:07.619Z,5.25
2019-02-16T09:08:48.340Z,4.33
2019-02-16T09:11:34.789Z,3.87
2019-02-16T09:14:20.787Z,3.92
2019-02-16T09:17:06.883Z,3.87
2019-02-16T09:19:59.829Z,7.62
2019-02-16T09:22:59.120Z,6.50
2019-02-16T09:25:45.660Z,7.67
2019-02-16T09:28:49.509Z,6.33
2019-02-16T09:31:40.349Z,10.65
2019-02-16T09:34:26.833Z,9.13
2019-02-16T09:40:20.210Z,11.08
2019-02-16T09:43:02.996Z,5.17
2019-02-16T09:45:56.191Z,9.73
2019-02-16T09:48:40.725Z,10.82
2019-02-16T09:51:38.282Z,10.78
2019-02-16T09:54:17.594Z,8.95
2019-02-16T09:57:00.015Z,11.55
2019-02-16T09:59:49.245Z,4.65
2019-02-16T10:02:35.838Z,12.05
2019-02-16T10:05:30.470Z,11.18
2019-02-16T10:08:33.610Z,10.65
2019-02-16T10:11:22.981Z,7.08
2019-02-16T10:14:14.554Z,11.12
2019-02-16T10:16:52.478Z,7.35
2019-02-16T10:19:44.168Z,13.53
2019-02-16T10:22:45.746Z,9.70
2019-02-16T10:25:35.338Z,13.95
2019-02-16T10:28:39.161Z,14.40
2019-02-16T10:31:30.167Z,14.78
2019-02-16T10:34:24.350Z,15.38
2019-02-16T10:37:21.510Z,9.40
2019-02-16T10:40:11.568Z,16.25
2019-02-16T10:43:04.447Z,13.83
2019-02-16T10:46:05.341Z,15.05
2019-02-16T10:48:47.812Z,12.07
2019-02-16T10:51:48.634Z,16.27
2019-02-16T10:54:33.142Z,12.05
2019-02-16T10:57:27.760Z,14.60
2019-02-16T11:00:31.570Z,15.58
2019-02-16T11:03:25.455Z,12.70
2019-02-16T11:06:09.027Z,14.45
2019-02-16T11:09:11.736Z,15.53
2019-02-16T11:12:02.014Z,11.30
2019-02-16T11:15:07.444Z,17.42
2019-02-16T11:18:12.462Z,10.82
2019-02-16T11:21:04.438Z,13.30
2019-02-16T11:23:58.258Z,12.88
2019-02-16T11:26:43.587Z,11.50
2019-02-16T11:29:31.293Z,13.62
2019-02-16T11:32:09.767Z,12.65
2019-02-16T11:35:00.778Z,16.75
2019-02-16T11:37:44.086Z,18.90
2019-02-16T11:40:46.468Z,19.10
2019-02-16T11:43:53.853Z,19.50
2019-02-16T11:46:44.549Z,10.55
2019-02-16T11:49:30.910Z,14.47
2019-02-16T11:52:26.819Z,16.93
2019-02-16T11:55:26.902Z,15.95
2019-02-16T11:58:37.404Z,17.42
2019-02-16T12:01:26.453Z,16.75
2019-02-16T12:04:09.041Z,12.98
2019-02-16T12:07:03.033Z,16.15
2019-02-16T12:09:50.814Z,17.20
2019-02-16T12:12:51.592Z,10.63
2019-02-16T12:15:40.882Z,13.58
2019-02-16T12:18:24.765Z,16.02
2019-02-16T12:21:13.940Z,12.65
2019-02-16T12:24:07.545Z,11.05
2019-02-16T12:27:02.336Z,15.25
2019-02-16T12:29:51.568Z,14.78
2019-02-16T12:32:42.036Z,12.53
2019-02-16T12:35:27.442Z,15.70
2019-02-16T12:38:14.259Z,12.45
2019-02-16T12:40:55.631Z,8.60
2019-02-16T12:43:50.395Z,17.65
2019-02-16T12:46:44.676Z,15.30
2019-02-16T12:49:33.407Z,13.75
2019-02-16T12:52:24.719Z,14.85
2019-02-16T12:55:15.990Z,14.23
2019-02-16T12:58:12.155Z,12.55
2019-02-16T13:01:05.910Z,9.35
2019-02-16T13:04:00.123Z,16.00
2019-02-16T13:07:06.282Z,17.73
2019-02-16T13:10:09.254Z,14.25
2019-02-16T13:13:05.560Z,13.00
2019-02-16T13:15:52.545Z,12.60
2019-02-16T13:18:36.632Z,14.38
2019-02-16T13:21:31.080Z,14.35
2019-02-16T13:24:26.541Z,10.72
2019-02-16T13:27:35.676Z,17.12
2019-02-16T13:30:27.529Z,9.85
2019-02-16T13:33:16.848Z,14.18
2019-02-16T13:36:02.356Z,9.45
2019-02-16T13:38:54.807Z,11.97
2019-02-16T13:42:08.546Z,17.48
2019-02-16T13:44:50.223Z,15.03
2019-02-16T13:47:47.439Z,19.20
2019-02-16T13:50:25.739Z,9.28
2019-02-16T13:53:25.750Z,11.05
2019-02-16T13:56:30.014Z,18.73
2019-02-16T13:59:27.194Z,17.32
2019-02-16T14:02:22.273Z,18.85
2019-02-16T14:05:28.328Z,18.02
2019-02-16T14:08:54.503Z,19.35
2019-02-16T14:11:47.884Z,16.10
2019-02-16T14:14:39.882Z,11.28
2019-02-16T14:17:22.971Z,18.12
2019-02-16T14:19:57.600Z,17.57
2019-02-16T14:25:55.082Z,11.10
2019-02-16T14:28:34.293Z,18.60
2019-02-16T14:31:09.982Z,22.10
2019-02-16T14:33:53.790Z,21.95
2019-02-16T14:36:27.089Z,20.95
2019-02-16T14:39:10.840Z,16.48
2019-02-16T14:41:45.305Z,15.72
2019-02-16T14:44:23.205Z,17.37
2019-02-16T14:46:56.077Z,22.37
2019-02-16T14:49:27.719Z,11.65
2019-02-16T14:52:00.503Z,20.35
2019-02-16T14:54:32.728Z,21.73
2019-02-16T14:57:08.825Z,17.05
2019-02-16T14:59:41.996Z,13.80
2019-02-16T15:02:21.774Z,18.25
2019-02-16T15:05:25.801Z,17.02
2019-02-16T15:12:10.293Z,14.95
2019-02-16T15:18:25.209Z,18.73
2019-02-16T15:30:59.710Z,18.75
2019-02-16T15:56:10.485Z,22.67
2019-02-16T16:05:39.249Z,16.97
2019-02-16T16:25:50.378Z,22.00
2019-02-16T16:35:10.404Z,21.35
2019-02-16T16:38:39.166Z,23.92
2019-02-16T16:41:34.972Z,19.27
2019-02-16T16:45:28.071Z,18.87
2019-02-16T16:52:24.287Z,28.00
2019-02-16T16:55:41.159Z,27.45
2019-02-16T16:59:15.060Z,20.37
2019-02-16T17:05:45.531Z,15.05
2019-02-16T17:52:06.953Z,25.95
2019-02-16T18:27:16.530Z,27.55
2019-02-16T19:05:30.059Z,21.02
2019-02-16T19:11:52.667Z,24.90
2019-02-16T19:22:46.250Z,32.78
2019-02-16T20:20:06.118Z,17.45
2019-02-16T20:41:17.859Z,29.45
2019-02-16T20:48:46.009Z,21.07
2019-02-16T20:54:56.424Z,31.55
2019-02-16T21:07:59.622Z,22.30
2019-02-16T21:11:34.801Z,16.65
2019-02-16T21:30:08.776Z,12.30
2019-02-16T21:37:17.807Z,23.62
2019-02-16T22:25:12.896Z,16.75
2019-02-16T22:28:47.617Z,24.43
2019-02-16T22:42:08.033Z,17.40
2019-02-16T22:53:31.445Z,25.72
2019-02-16T22:56:48.867Z,29.12
